Maersk Dominica — A8IY4 — position and weather

sailwx.info

Track history (hours):
 
Tides and Currents Weather Stations Pressure Air Temp Water Temp Dewpoint Dewpoint Depression Visibility Wind Speed Wind Dir Waves Ship Positions

Maersk Dominica

Last reported at 2018-Jun-12 18:47 UTC. Time now 2018-Jun-21 11:58 UTC.
Position N 09°13' W 079°55'.
Warning: this ship's position is 8 days out of date.

Length 281 m; beam 32.2 m; draft 12.5 m.

Type: Ship (hazmat cat A). MMSI: 636016437.

Date/timePositionNaut miles runAvg speedWind from/ knotsBaromVisibWave heightAir tempDewpointWater temp
2018-Jun-12 18:47N 09°13' W 079°55'2 8.2
2018-Jun-12 18:30N 09°15' W 079°55'1 2.8
2018-Jun-12 18:00N 09°16' W 079°55'0 0.7
2018-Jun-12 17:30N 09°17' W 079°55'0 0.4
2018-Jun-12 17:01N 09°17' W 079°55'0 0.5
2018-Jun-12 16:29N 09°17' W 079°55'2 3.2
2018-Jun-12 16:00N 09°19' W 079°55'2 4.7
2018-Jun-12 15:30N 09°21' W 079°55'3 6.2
2018-Jun-12 15:00N 09°24' W 079°55'4 8.9
2018-Jun-12 14:31N 09°29' W 079°55'4 0.6
2018-Jun-12 08:16N 09°32' W 079°56'312.0
2018-Jun-12 08:00N 09°34' W 079°53'  
2018-Jun-08 13:22N 37°16' W 074°36'821.8
2018-Jun-08 13:00N 37°23' W 074°37'1121.4
2018-Jun-08 12:30N 37°34' W 074°38'1121.2
2018-Jun-08 12:00N 37°45' W 074°39'1121.5
2018-Jun-08 11:30N 37°55' W 074°40'1121.4
2018-Jun-08 11:00N 38°06' W 074°42'1121.4
2018-Jun-08 10:30N 38°17' W 074°43'1021.0
2018-Jun-08 10:00N 38°27' W 074°44'1020.8
2018-Jun-08 09:30N 38°36' W 074°51'1020.1
2018-Jun-08 09:00N 38°44' W 074°59'815.3
2018-Jun-08 08:30N 38°50' W 075°05'714.6
2018-Jun-08 08:00N 38°57' W 075°07'816.5
2018-Jun-08 07:31N 39°05' W 075°11'612.7
2018-Jun-08 07:00N 39°10' W 075°16'815.9
2018-Jun-08 06:31N 39°17' W 075°21'917.2
2018-Jun-08 06:00N 39°23' W 075°29'816.5
2018-Jun-08 05:30N 39°30' W 075°33'714.1
2018-Jun-08 05:01N 39°37' W 075°35'714.7
2018-Jun-08 04:31N 39°44' W 075°30'612.4
2018-Jun-08 04:00N 39°48' W 075°25'510.8
2018-Jun-08 03:30N 39°51' W 075°18'4 9.0
2018-Jun-08 03:01N 39°52' W 075°13'4 7.7
2018-Jun-08 02:30N 39°54' W 075°08'0 0.8
2018-Jun-08 02:00N 39°54' W 075°08'0 0.0
2018-Jun-08 01:30N 39°54' W 075°08'0 0.0
2018-Jun-08 01:00N 39°54' W 075°08'0 0.0
2018-Jun-08 00:30N 39°54' W 075°08'0 0.0
2018-Jun-08 00:00N 39°54' W 075°08'0 0.0
2018-Jun-07 23:30N 39°54' W 075°08'0 0.0
2018-Jun-07 23:00N 39°54' W 075°08'0 0.0
2018-Jun-07 22:30N 39°54' W 075°08'0 0.0
2018-Jun-07 22:00N 39°54' W 075°08'0 0.0
2018-Jun-07 21:30N 39°54' W 075°08'0 0.0
2018-Jun-07 21:00N 39°54' W 075°08'0 0.0
2018-Jun-07 20:30N 39°54' W 075°08'0 0.0
2018-Jun-07 20:00N 39°54' W 075°08'0 0.0
2018-Jun-07 19:30N 39°54' W 075°08'0 0.0
2018-Jun-07 19:00N 39°54' W 075°08'0 0.0
2018-Jun-07 18:30N 39°54' W 075°08'0 0.0
2018-Jun-07 18:00N 39°54' W 075°08'0 0.0
2018-Jun-07 17:30N 39°54' W 075°08'0 0.0
2018-Jun-07 17:00N 39°54' W 075°08'0 0.0
2018-Jun-07 16:30N 39°54' W 075°08'0 0.0
2018-Jun-07 16:00N 39°54' W 075°08'0 0.0
2018-Jun-07 15:30N 39°54' W 075°08'0 0.0
2018-Jun-07 15:00N 39°54' W 075°08'0 0.0
2018-Jun-07 14:30N 39°54' W 075°08'0 0.0
2018-Jun-07 14:00N 39°54' W 075°08'0 0.5
2018-Jun-07 13:30N 39°54' W 075°08'3 5.0
2018-Jun-07 13:00N 39°53' W 075°11'4 8.2
2018-Jun-07 12:30N 39°51' W 075°16'4 7.6
2018-Jun-07 12:01N 39°51' W 075°21'5 9.8
2018-Jun-07 11:30N 39°48' W 075°26'510.5
2018-Jun-07 11:00N 39°44' W 075°30'510.0
2018-Jun-07 10:30N 39°39' W 075°33'5 9.1
2018-Jun-07 10:00N 39°35' W 075°33'611.9
2018-Jun-07 09:30N 39°29' W 075°34'611.0
2018-Jun-07 09:00N 39°24' W 075°30'613.0
2018-Jun-07 08:30N 39°19' W 075°24'712.7
2018-Jun-07 07:59N 39°14' W 075°18'612.4
2018-Jun-07 07:30N 39°09' W 075°15'510.8
2018-Jun-07 07:00N 39°05' W 075°11'612.8
2018-Jun-07 06:30N 38°59' W 075°08'612.9
2018-Jun-07 06:00N 38°53' W 075°04'611.8
2018-Jun-07 05:30N 38°47' W 075°02'4 7.5
2018-Jun-07 05:00N 38°45' W 074°58'3 6.3
2018-Jun-07 04:30N 38°43' W 074°55'5 9.5
2018-Jun-07 04:00N 38°39' W 074°52'6 9.9
2018-Jun-07 03:27N 38°35' W 074°47'1510.7
2018-Jun-07 02:03N 38°23' W 074°35'1 1.5
2018-Jun-07 01:39N 38°24' W 074°34'0 0.9
2018-Jun-07 01:25N 38°24' W 074°34'0 0.9
2018-Jun-07 00:52N 38°24' W 074°34'0 0.9
2018-Jun-07 00:30N 38°24' W 074°33'0 0.9
2018-Jun-07 00:00N 38°25' W 074°33'0 0.8
2018-Jun-06 23:30N 38°25' W 074°32'46 2.5
2018-Jun-06 05:01N 39°08' W 074°12'1 9.2
2018-Jun-06 04:53N 39°10' W 074°11'4 9.2
2018-Jun-06 04:29N 39°13' W 074°09'5 9.2
2018-Jun-06 03:57N 39°18' W 074°07'4 9.2
2018-Jun-06 03:29N 39°22' W 074°05'5 9.4
2018-Jun-06 03:00N 39°26' W 074°02'5 9.4
2018-Jun-06 02:30N 39°30' W 074°00'5 9.6
2018-Jun-06 01:59N 39°35' W 073°58'4 9.4
2018-Jun-06 01:30N 39°39' W 073°55'4 8.9
2018-Jun-06 01:00N 39°43' W 073°53'5 8.9
2018-Jun-06 00:30N 39°47' W 073°52'5 9.3
2018-Jun-05 23:59N 39°52' W 073°51'41 9.0
2018-Jun-05 19:27N 40°32' W 074°01'715.5
2018-Jun-05 19:00N 40°39' W 074°04'3 6.5
2018-Jun-05 18:30N 40°39' W 074°08'2 3.5
2018-Jun-05 17:58N 40°40' W 074°08'1 2.3
2018-Jun-05 17:30N 40°41' W 074°09'0 0.1
2018-Jun-05 16:58N 40°41' W 074°09'0 0.0
2018-Jun-05 16:22N 40°41' W 074°09'0 0.0
2018-Jun-05 15:58N 40°41' W 074°09'0 0.0
2018-Jun-05 15:25N 40°41' W 074°09'0 0.0
2018-Jun-05 14:58N 40°41' W 074°09'0 0.0
2018-Jun-05 14:22N 40°41' W 074°09'0 0.0
2018-Jun-05 13:58N 40°41' W 074°09'0 0.0
2018-Jun-05 13:25N 40°41' W 074°09'0 0.0
2018-Jun-05 12:49N 40°41' W 074°09'0 0.0
2018-Jun-05 12:25N 40°41' W 074°09'0 0.0
2018-Jun-05 11:55N 40°41' W 074°09'0 0.0
2018-Jun-05 11:28N 40°41' W 074°09'0 0.0
2018-Jun-05 10:55N 40°41' W 074°09'0 0.0
2018-Jun-05 10:28N 40°41' W 074°09'0 0.0
2018-Jun-05 09:46N 40°41' W 074°09'0 0.0
2018-Jun-05 09:28N 40°41' W 074°09'0 0.0
2018-Jun-05 08:58N 40°41' W 074°09'0 0.0
2018-Jun-05 08:19N 40°41' W 074°09'0 0.0
2018-Jun-05 07:58N 40°41' W 074°09'0 0.0
2018-Jun-05 07:19N 40°41' W 074°09'0 0.0
2018-Jun-05 06:58N 40°41' W 074°09'0 0.0
2018-Jun-05 06:19N 40°41' W 074°09'0 0.0
2018-Jun-05 05:55N 40°41' W 074°09'0 0.0
2018-Jun-05 05:25N 40°41' W 074°09'0 0.0
2018-Jun-05 04:55N 40°41' W 074°09'0 0.0
2018-Jun-05 04:28N 40°41' W 074°09'0 0.0
2018-Jun-05 03:58N 40°41' W 074°09'0 0.0
2018-Jun-05 03:25N 40°41' W 074°09'0 0.0
2018-Jun-05 02:55N 40°41' W 074°09'0 0.0
2018-Jun-05 02:16N 40°41' W 074°09'0 0.0
2018-Jun-05 01:58N 40°41' W 074°09'0 0.0
2018-Jun-05 01:22N 40°41' W 074°09'0 0.0
2018-Jun-05 00:58N 40°41' W 074°09'0 0.0
2018-Jun-05 00:19N 40°41' W 074°09'0 0.0
2018-Jun-04 23:58N 40°41' W 074°09'0 0.0
2018-Jun-04 23:28N 40°41' W 074°09'0 0.0
2018-Jun-04 22:58N 40°41' W 074°09'0 0.0
2018-Jun-04 22:25N 40°41' W 074°09'0 0.0
2018-Jun-04 21:58N 40°41' W 074°09'0 0.0
2018-Jun-04 21:25N 40°41' W 074°09'0 0.0
2018-Jun-04 20:58N 40°41' W 074°09'0 0.1
2018-Jun-04 20:30N 40°41' W 074°09'2 3.5
2018-Jun-04 20:00N 40°39' W 074°09'2 4.4
2018-Jun-04 19:30N 40°39' W 074°06'3 6.0
2018-Jun-04 19:00N 40°37' W 074°03'612.2
2018-Jun-04 18:29N 40°31' W 073°59'20910.3
2018-Jun-03 22:10N 41°42' W 069°39'210.0
2018-Jun-03 22:00N 41°44' W 069°40'5 9.8
2018-Jun-03 21:30N 41°48' W 069°43'5 9.6
2018-Jun-03 21:00N 41°53' W 069°45'2017.5
2018-Jun-03 19:50N 42°11' W 069°58'618.6
2018-Jun-03 19:30N 42°16' W 070°02'917.7
2018-Jun-03 19:00N 42°18' W 070°14'1218.0
2018-Jun-03 18:19N 42°19' W 070°31'718.8
2018-Jun-03 17:57N 42°20' W 070°40'817.4
2018-Jun-03 17:30N 42°23' W 070°49'5 9.4
2018-Jun-03 17:01N 42°22' W 070°55'4 8.3
2018-Jun-03 16:30N 42°21' W 071°01'0 0.6
2018-Jun-03 15:58N 42°21' W 071°01'0 0.0
2018-Jun-03 15:28N 42°21' W 071°01'0 0.0
2018-Jun-03 14:58N 42°21' W 071°01'0 0.0
2018-Jun-03 14:28N 42°21' W 071°01'0 0.0
2018-Jun-03 13:58N 42°21' W 071°01'0 0.0
2018-Jun-03 13:28N 42°21' W 071°01'0 0.0
2018-Jun-03 12:58N 42°21' W 071°01'0 0.0
2018-Jun-03 12:28N 42°21' W 071°01'0 0.0
2018-Jun-03 11:58N 42°21' W 071°01'0 0.0
2018-Jun-03 11:28N 42°21' W 071°01'0 0.0
2018-Jun-03 10:58N 42°21' W 071°01'0 0.0
2018-Jun-03 10:28N 42°21' W 071°01'0 0.0
2018-Jun-03 09:58N 42°21' W 071°01'0 0.0
2018-Jun-03 09:28N 42°21' W 071°01'0 0.0
2018-Jun-03 08:58N 42°21' W 071°01'0 0.0
2018-Jun-03 08:28N 42°21' W 071°01'0 0.0
2018-Jun-03 07:58N 42°21' W 071°01'0 0.0
2018-Jun-03 07:28N 42°21' W 071°01'0 0.0
2018-Jun-03 06:58N 42°21' W 071°01'0 0.0
2018-Jun-03 06:28N 42°21' W 071°01'0 0.0
2018-Jun-03 05:58N 42°21' W 071°01'0 0.0
2018-Jun-03 05:28N 42°21' W 071°01'0 0.0
2018-Jun-03 04:58N 42°21' W 071°01'0 0.0
2018-Jun-03 04:28N 42°21' W 071°01'0 0.0
2018-Jun-03 03:58N 42°21' W 071°01'0 0.0
2018-Jun-03 03:28N 42°21' W 071°01'0 0.0
2018-Jun-03 02:58N 42°21' W 071°01'0 0.0
2018-Jun-03 02:28N 42°21' W 071°01'0 0.0
2018-Jun-03 01:58N 42°21' W 071°01'0 0.0
2018-Jun-03 01:28N 42°21' W 071°01'0 0.0
2018-Jun-03 00:58N 42°21' W 071°01'0 0.0
2018-Jun-03 00:28N 42°21' W 071°01'0 0.0
2018-Jun-02 23:58N 42°21' W 071°01'0 0.0
2018-Jun-02 23:28N 42°21' W 071°01'0 0.0
2018-Jun-02 22:58N 42°21' W 071°01'0 0.0
2018-Jun-02 22:28N 42°21' W 071°01'0 0.0
2018-Jun-02 21:58N 42°21' W 071°01'0 0.1
2018-Jun-02 21:30N 42°21' W 071°01'2 4.3
2018-Jun-02 21:00N 42°20' W 070°58'3 6.4
2018-Jun-02 20:30N 42°22' W 070°55'4 8.2
2018-Jun-02 20:00N 42°24' W 070°50'5 9.1
2018-Jun-02 19:30N 42°22' W 070°44'5 9.9
2018-Jun-02 19:00N 42°22' W 070°38'  
Track history (hours):
 
Tides and Currents Weather Stations Pressure Air Temp Water Temp Dewpoint Dewpoint Depression Visibility Wind Speed Wind Dir Waves Ship Positions

Maersk Dominica

Last reported at 2018-Jun-12 18:47 UTC. Time now 2018-Jun-21 11:58 UTC.
Position N 09°13' W 079°55'.
Warning: this ship's position is 8 days out of date.

Length 281 m; beam 32.2 m; draft 12.5 m.

Type: Ship (hazmat cat A). MMSI: 636016437.

Date/timePositionNaut miles runAvg speedWind from/ knotsBaromVisibWave heightAir tempDewpointWater temp
2018-Jun-12 18:47N 09°13' W 079°55'2 8.2
2018-Jun-12 18:30N 09°15' W 079°55'1 2.8
2018-Jun-12 18:00N 09°16' W 079°55'0 0.7
2018-Jun-12 17:30N 09°17' W 079°55'0 0.4
2018-Jun-12 17:01N 09°17' W 079°55'0 0.5
2018-Jun-12 16:29N 09°17' W 079°55'2 3.2
2018-Jun-12 16:00N 09°19' W 079°55'2 4.7
2018-Jun-12 15:30N 09°21' W 079°55'3 6.2
2018-Jun-12 15:00N 09°24' W 079°55'4 8.9
2018-Jun-12 14:31N 09°29' W 079°55'4 0.6
2018-Jun-12 08:16N 09°32' W 079°56'312.0
2018-Jun-12 08:00N 09°34' W 079°53'  
2018-Jun-08 13:22N 37°16' W 074°36'821.8
2018-Jun-08 13:00N 37°23' W 074°37'1121.4
2018-Jun-08 12:30N 37°34' W 074°38'1121.2
2018-Jun-08 12:00N 37°45' W 074°39'1121.5
2018-Jun-08 11:30N 37°55' W 074°40'1121.4
2018-Jun-08 11:00N 38°06' W 074°42'1121.4
2018-Jun-08 10:30N 38°17' W 074°43'1021.0
2018-Jun-08 10:00N 38°27' W 074°44'1020.8
2018-Jun-08 09:30N 38°36' W 074°51'1020.1
2018-Jun-08 09:00N 38°44' W 074°59'815.3
2018-Jun-08 08:30N 38°50' W 075°05'714.6
2018-Jun-08 08:00N 38°57' W 075°07'816.5
2018-Jun-08 07:31N 39°05' W 075°11'612.7
2018-Jun-08 07:00N 39°10' W 075°16'815.9
2018-Jun-08 06:31N 39°17' W 075°21'917.2
2018-Jun-08 06:00N 39°23' W 075°29'816.5
2018-Jun-08 05:30N 39°30' W 075°33'714.1
2018-Jun-08 05:01N 39°37' W 075°35'714.7
2018-Jun-08 04:31N 39°44' W 075°30'612.4
2018-Jun-08 04:00N 39°48' W 075°25'510.8
2018-Jun-08 03:30N 39°51' W 075°18'4 9.0
2018-Jun-08 03:01N 39°52' W 075°13'4 7.7
2018-Jun-08 02:30N 39°54' W 075°08'0 0.8
2018-Jun-08 02:00N 39°54' W 075°08'0 0.0
2018-Jun-08 01:30N 39°54' W 075°08'0 0.0
2018-Jun-08 01:00N 39°54' W 075°08'0 0.0
2018-Jun-08 00:30N 39°54' W 075°08'0 0.0
2018-Jun-08 00:00N 39°54' W 075°08'0 0.0
2018-Jun-07 23:30N 39°54' W 075°08'0 0.0
2018-Jun-07 23:00N 39°54' W 075°08'0 0.0
2018-Jun-07 22:30N 39°54' W 075°08'0 0.0
2018-Jun-07 22:00N 39°54' W 075°08'0 0.0
2018-Jun-07 21:30N 39°54' W 075°08'0 0.0
2018-Jun-07 21:00N 39°54' W 075°08'0 0.0
2018-Jun-07 20:30N 39°54' W 075°08'0 0.0
2018-Jun-07 20:00N 39°54' W 075°08'0 0.0
2018-Jun-07 19:30N 39°54' W 075°08'0 0.0
2018-Jun-07 19:00N 39°54' W 075°08'0 0.0
2018-Jun-07 18:30N 39°54' W 075°08'0 0.0
2018-Jun-07 18:00N 39°54' W 075°08'0 0.0
2018-Jun-07 17:30N 39°54' W 075°08'0 0.0
2018-Jun-07 17:00N 39°54' W 075°08'0 0.0
2018-Jun-07 16:30N 39°54' W 075°08'0 0.0
2018-Jun-07 16:00N 39°54' W 075°08'0 0.0
2018-Jun-07 15:30N 39°54' W 075°08'0 0.0
2018-Jun-07 15:00N 39°54' W 075°08'0 0.0
2018-Jun-07 14:30N 39°54' W 075°08'0 0.0
2018-Jun-07 14:00N 39°54' W 075°08'0 0.5
2018-Jun-07 13:30N 39°54' W 075°08'3 5.0
2018-Jun-07 13:00N 39°53' W 075°11'4 8.2
2018-Jun-07 12:30N 39°51' W 075°16'4 7.6
2018-Jun-07 12:01N 39°51' W 075°21'5 9.8
2018-Jun-07 11:30N 39°48' W 075°26'510.5
2018-Jun-07 11:00N 39°44' W 075°30'510.0
2018-Jun-07 10:30N 39°39' W 075°33'5 9.1
2018-Jun-07 10:00N 39°35' W 075°33'611.9
2018-Jun-07 09:30N 39°29' W 075°34'611.0
2018-Jun-07 09:00N 39°24' W 075°30'613.0
2018-Jun-07 08:30N 39°19' W 075°24'712.7
2018-Jun-07 07:59N 39°14' W 075°18'612.4
2018-Jun-07 07:30N 39°09' W 075°15'510.8
2018-Jun-07 07:00N 39°05' W 075°11'612.8
2018-Jun-07 06:30N 38°59' W 075°08'612.9
2018-Jun-07 06:00N 38°53' W 075°04'611.8
2018-Jun-07 05:30N 38°47' W 075°02'4 7.5
2018-Jun-07 05:00N 38°45' W 074°58'3 6.3
2018-Jun-07 04:30N 38°43' W 074°55'5 9.5
2018-Jun-07 04:00N 38°39' W 074°52'6 9.9
2018-Jun-07 03:27N 38°35' W 074°47'1510.7
2018-Jun-07 02:03N 38°23' W 074°35'1 1.5
2018-Jun-07 01:39N 38°24' W 074°34'0 0.9
2018-Jun-07 01:25N 38°24' W 074°34'0 0.9
2018-Jun-07 00:52N 38°24' W 074°34'0 0.9
2018-Jun-07 00:30N 38°24' W 074°33'0 0.9
2018-Jun-07 00:00N 38°25' W 074°33'0 0.8
2018-Jun-06 23:30N 38°25' W 074°32'46 2.5
2018-Jun-06 05:01N 39°08' W 074°12'1 9.2
2018-Jun-06 04:53N 39°10' W 074°11'4 9.2
2018-Jun-06 04:29N 39°13' W 074°09'5 9.2
2018-Jun-06 03:57N 39°18' W 074°07'4 9.2
2018-Jun-06 03:29N 39°22' W 074°05'5 9.4
2018-Jun-06 03:00N 39°26' W 074°02'5 9.4
2018-Jun-06 02:30N 39°30' W 074°00'5 9.6
2018-Jun-06 01:59N 39°35' W 073°58'4 9.4
2018-Jun-06 01:30N 39°39' W 073°55'4 8.9
2018-Jun-06 01:00N 39°43' W 073°53'5 8.9
2018-Jun-06 00:30N 39°47' W 073°52'5 9.3
2018-Jun-05 23:59N 39°52' W 073°51'41 9.0
2018-Jun-05 19:27N 40°32' W 074°01'715.5
2018-Jun-05 19:00N 40°39' W 074°04'3 6.5
2018-Jun-05 18:30N 40°39' W 074°08'2 3.5
2018-Jun-05 17:58N 40°40' W 074°08'1 2.3
2018-Jun-05 17:30N 40°41' W 074°09'0 0.1
2018-Jun-05 16:58N 40°41' W 074°09'0 0.0
2018-Jun-05 16:22N 40°41' W 074°09'0 0.0
2018-Jun-05 15:58N 40°41' W 074°09'0 0.0
2018-Jun-05 15:25N 40°41' W 074°09'0 0.0
2018-Jun-05 14:58N 40°41' W 074°09'0 0.0
2018-Jun-05 14:22N 40°41' W 074°09'0 0.0
2018-Jun-05 13:58N 40°41' W 074°09'0 0.0
2018-Jun-05 13:25N 40°41' W 074°09'0 0.0
2018-Jun-05 12:49N 40°41' W 074°09'0 0.0
2018-Jun-05 12:25N 40°41' W 074°09'0 0.0
2018-Jun-05 11:55N 40°41' W 074°09'0 0.0
2018-Jun-05 11:28N 40°41' W 074°09'0 0.0
2018-Jun-05 10:55N 40°41' W 074°09'0 0.0
2018-Jun-05 10:28N 40°41' W 074°09'0 0.0
2018-Jun-05 09:46N 40°41' W 074°09'0 0.0
2018-Jun-05 09:28N 40°41' W 074°09'0 0.0
2018-Jun-05 08:58N 40°41' W 074°09'0 0.0
2018-Jun-05 08:19N 40°41' W 074°09'0 0.0
2018-Jun-05 07:58N 40°41' W 074°09'0 0.0
2018-Jun-05 07:19N 40°41' W 074°09'0 0.0
2018-Jun-05 06:58N 40°41' W 074°09'0 0.0
2018-Jun-05 06:19N 40°41' W 074°09'0 0.0
2018-Jun-05 05:55N 40°41' W 074°09'0 0.0
2018-Jun-05 05:25N 40°41' W 074°09'0 0.0
2018-Jun-05 04:55N 40°41' W 074°09'0 0.0
2018-Jun-05 04:28N 40°41' W 074°09'0 0.0
2018-Jun-05 03:58N 40°41' W 074°09'0 0.0
2018-Jun-05 03:25N 40°41' W 074°09'0 0.0
2018-Jun-05 02:55N 40°41' W 074°09'0 0.0
2018-Jun-05 02:16N 40°41' W 074°09'0 0.0
2018-Jun-05 01:58N 40°41' W 074°09'0 0.0
2018-Jun-05 01:22N 40°41' W 074°09'0 0.0
2018-Jun-05 00:58N 40°41' W 074°09'0 0.0
2018-Jun-05 00:19N 40°41' W 074°09'0 0.0
2018-Jun-04 23:58N 40°41' W 074°09'0 0.0
2018-Jun-04 23:28N 40°41' W 074°09'0 0.0
2018-Jun-04 22:58N 40°41' W 074°09'0 0.0
2018-Jun-04 22:25N 40°41' W 074°09'0 0.0
2018-Jun-04 21:58N 40°41' W 074°09'0 0.0
2018-Jun-04 21:25N 40°41' W 074°09'0 0.0
2018-Jun-04 20:58N 40°41' W 074°09'0 0.1
2018-Jun-04 20:30N 40°41' W 074°09'2 3.5
2018-Jun-04 20:00N 40°39' W 074°09'2 4.4
2018-Jun-04 19:30N 40°39' W 074°06'3 6.0
2018-Jun-04 19:00N 40°37' W 074°03'612.2
2018-Jun-04 18:29N 40°31' W 073°59'20910.3
2018-Jun-03 22:10N 41°42' W 069°39'210.0
2018-Jun-03 22:00N 41°44' W 069°40'5 9.8
2018-Jun-03 21:30N 41°48' W 069°43'5 9.6
2018-Jun-03 21:00N 41°53' W 069°45'2017.5
2018-Jun-03 19:50N 42°11' W 069°58'618.6
2018-Jun-03 19:30N 42°16' W 070°02'917.7
2018-Jun-03 19:00N 42°18' W 070°14'1218.0
2018-Jun-03 18:19N 42°19' W 070°31'718.8
2018-Jun-03 17:57N 42°20' W 070°40'817.4
2018-Jun-03 17:30N 42°23' W 070°49'5 9.4
2018-Jun-03 17:01N 42°22' W 070°55'4 8.3
2018-Jun-03 16:30N 42°21' W 071°01'0 0.6
2018-Jun-03 15:58N 42°21' W 071°01'0 0.0
2018-Jun-03 15:28N 42°21' W 071°01'0 0.0
2018-Jun-03 14:58N 42°21' W 071°01'0 0.0
2018-Jun-03 14:28N 42°21' W 071°01'0 0.0
2018-Jun-03 13:58N 42°21' W 071°01'0 0.0
2018-Jun-03 13:28N 42°21' W 071°01'0 0.0
2018-Jun-03 12:58N 42°21' W 071°01'0 0.0
2018-Jun-03 12:28N 42°21' W 071°01'0 0.0
2018-Jun-03 11:58N 42°21' W 071°01'0 0.0
2018-Jun-03 11:28N 42°21' W 071°01'0 0.0
2018-Jun-03 10:58N 42°21' W 071°01'0 0.0
2018-Jun-03 10:28N 42°21' W 071°01'0 0.0
2018-Jun-03 09:58N 42°21' W 071°01'0 0.0
2018-Jun-03 09:28N 42°21' W 071°01'0 0.0
2018-Jun-03 08:58N 42°21' W 071°01'0 0.0
2018-Jun-03 08:28N 42°21' W 071°01'0 0.0
2018-Jun-03 07:58N 42°21' W 071°01'0 0.0
2018-Jun-03 07:28N 42°21' W 071°01'0 0.0
2018-Jun-03 06:58N 42°21' W 071°01'0 0.0
2018-Jun-03 06:28N 42°21' W 071°01'0 0.0
2018-Jun-03 05:58N 42°21' W 071°01'0 0.0
2018-Jun-03 05:28N 42°21' W 071°01'0 0.0
2018-Jun-03 04:58N 42°21' W 071°01'0 0.0
2018-Jun-03 04:28N 42°21' W 071°01'0 0.0
2018-Jun-03 03:58N 42°21' W 071°01'0 0.0
2018-Jun-03 03:28N 42°21' W 071°01'0 0.0
2018-Jun-03 02:58N 42°21' W 071°01'0 0.0
2018-Jun-03 02:28N 42°21' W 071°01'0 0.0
2018-Jun-03 01:58N 42°21' W 071°01'0 0.0
2018-Jun-03 01:28N 42°21' W 071°01'0 0.0
2018-Jun-03 00:58N 42°21' W 071°01'0 0.0
2018-Jun-03 00:28N 42°21' W 071°01'0 0.0
2018-Jun-02 23:58N 42°21' W 071°01'0 0.0
2018-Jun-02 23:28N 42°21' W 071°01'0 0.0
2018-Jun-02 22:58N 42°21' W 071°01'0 0.0
2018-Jun-02 22:28N 42°21' W 071°01'0 0.0
2018-Jun-02 21:58N 42°21' W 071°01'0 0.1
2018-Jun-02 21:30N 42°21' W 071°01'2 4.3
2018-Jun-02 21:00N 42°20' W 070°58'3 6.4
2018-Jun-02 20:30N 42°22' W 070°55'4 8.2
2018-Jun-02 20:00N 42°24' W 070°50'5 9.1
2018-Jun-02 19:30N 42°22' W 070°44'5 9.9
2018-Jun-02 19:00N 42°22' W 070°38'  

Dump ship's entire track history